Time;durP1;ratioP1;P1;durP2;ratioP2;P2;SDS_P1;SDS_P2;PMS_P1;PMS_P2;Temp;Humidity;BMP_temperature;BMP_pressure;BME280_temperature;BME280_humidity;BME280_pressure;Samples;Min_cycle;Max_cycle;Signal;HPM_P1;HPM_P2
2023/07/18 00:00:42;;;;;;;15.68;8.35;;;;;;;23.71;43.62;99242.91;5072290;28;20520;-61
2023/07/18 00:03:09;;;;;;;18.67;8.48;;;;;;;23.71;43.83;99242.91;5073208;28;20102;-59
2023/07/18 00:05:36;;;;;;;18.10;8.45;;;;;;;23.71;43.74;99234.72;5073236;28;20115;-61
2023/07/18 00:08:02;;;;;;;16.63;8.00;;;;;;;23.49;43.96;99202.34;5072780;28;20121;-59
2023/07/18 00:10:27;;;;;;;16.33;7.93;;;;;;;23.65;45.00;99242.75;5073484;28;20040;-61
2023/07/18 00:12:53;;;;;;;19.63;8.20;;;;;;;23.61;46.15;99237.94;5073236;28;20115;-60
2023/07/18 00:15:18;;;;;;;14.88;8.07;;;;;;;23.58;45.64;99238.41;5072197;28;20428;-59
2023/07/18 00:17:44;;;;;;;17.80;7.63;;;;;;;23.56;45.95;99241.34;5073032;28;20040;-60
2023/07/18 00:20:14;;;;;;;19.27;8.13;;;;;;;23.60;45.19;99248.03;5073491;28;20044;-60
2023/07/18 00:22:40;;;;;;;16.50;7.70;;;;;;;23.55;46.42;99252.53;5072776;28;20028;-58
2023/07/18 00:25:10;;;;;;;12.55;6.50;;;;;;;23.56;45.10;99248.72;5072842;28;20040;-61
2023/07/18 00:27:38;;;;;;;18.40;6.90;;;;;;;23.44;45.24;99234.97;5073246;28;20028;-60
2023/07/18 00:30:06;;;;;;;10.05;6.15;;;;;;;23.50;45.25;99243.06;5073005;28;20074;-60
2023/07/18 00:32:32;;;;;;;13.05;6.25;;;;;;;23.49;45.34;99229.66;5072631;28;20035;-57
2023/07/18 00:34:57;;;;;;;13.07;6.32;;;;;;;23.50;45.37;99240.34;5073255;28;20032;-61
2023/07/18 00:37:23;;;;;;;13.32;6.13;;;;;;;23.48;45.46;99242.47;5073250;28;20453;-59
2023/07/18 00:39:49;;;;;;;8.75;6.00;;;;;;;23.43;45.58;99227.81;5072466;28;20174;-61
2023/07/18 00:42:14;;;;;;;10.07;6.05;;;;;;;23.46;45.65;99228.19;5071845;28;20365;-61
2023/07/18 00:44:40;;;;;;;10.18;6.20;;;;;;;23.46;45.87;99213.72;5072272;28;20025;-59
2023/07/18 00:47:07;;;;;;;9.73;6.60;;;;;;;23.35;46.00;99212.53;5072197;28;20090;-59
2023/07/18 00:49:34;;;;;;;11.10;5.78;;;;;;;23.39;45.99;99219.22;5072309;28;20063;-58
2023/07/18 00:52:01;;;;;;;10.45;5.70;;;;;;;23.31;46.35;99220.34;5072743;28;20504;-60
2023/07/18 00:54:27;;;;;;;10.32;5.88;;;;;;;23.34;46.36;99224.53;5072872;28;20333;-63
2023/07/18 00:56:54;;;;;;;10.73;6.68;;;;;;;23.31;46.76;99214.88;5072904;28;20024;-60
2023/07/18 00:59:21;;;;;;;8.73;5.63;;;;;;;23.27;46.63;99207.34;5072124;28;20064;-60
2023/07/18 01:01:46;;;;;;;8.85;6.10;;;;;;;23.20;46.88;99202.75;5072333;28;20107;-59
2023/07/18 01:04:13;;;;;;;10.35;6.03;;;;;;;23.17;46.99;99196.91;5071817;28;20083;-58
2023/07/18 01:06:39;;;;;;;12.52;6.18;;;;;;;23.19;47.19;99194.78;5072857;28;20095;-59
2023/07/18 01:09:06;;;;;;;7.25;6.40;;;;;;;22.97;47.60;99162.41;5071920;28;20048;-57
2023/07/18 01:11:33;;;;;;;9.95;6.18;;;;;;;23.13;47.65;99196.50;5072460;28;20098;-61
2023/07/18 01:13:59;;;;;;;10.35;5.97;;;;;;;23.08;48.11;99197.16;5073004;28;20051;-61
2023/07/18 01:16:24;;;;;;;8.80;5.88;;;;;;;23.03;48.24;99186.06;5072767;28;20433;-58
2023/07/18 01:18:50;;;;;;;10.48;6.45;;;;;;;22.97;48.59;99186.97;5072206;28;20075;-60
2023/07/18 01:21:19;;;;;;;10.23;6.53;;;;;;;22.99;48.65;99193.03;5072051;28;20028;-60
2023/07/18 01:23:45;;;;;;;13.30;6.97;;;;;;;22.90;48.69;99180.69;5072422;28;20032;-61
2023/07/18 01:26:12;;;;;;;10.98;6.75;;;;;;;22.86;48.92;99174.88;5072758;28;20141;-60
2023/07/18 01:28:38;;;;;;;11.77;6.53;;;;;;;22.83;48.94;99174.47;5072184;28;20066;-60
2023/07/18 01:31:05;;;;;;;12.95;6.70;;;;;;;22.82;49.14;99175.53;5072044;28;20067;-61
2023/07/18 01:33:31;;;;;;;10.20;7.18;;;;;;;22.80;49.26;99167.56;5072581;28;20040;-60
2023/07/18 01:35:57;;;;;;;13.23;7.30;;;;;;;22.72;49.69;99146.00;5072296;28;20028;-61
2023/07/18 01:38:29;;;;;;;15.70;7.57;;;;;;;22.76;49.48;99155.41;5071799;28;20071;-59
2023/07/18 01:40:59;;;;;;;13.18;6.93;;;;;;;22.78;49.54;99154.13;5071906;28;20024;-59
2023/07/18 01:43:25;;;;;;;12.57;7.50;;;;;;;22.80;49.24;99145.75;5071724;28;20029;-59
2023/07/18 01:45:51;;;;;;;15.63;7.13;;;;;;;22.77;49.44;99152.47;5072048;28;20060;-59
2023/07/18 01:48:18;;;;;;;13.25;6.78;;;;;;;22.77;49.57;99138.81;5072145;28;20145;-62
2023/07/18 01:50:43;;;;;;;10.82;7.20;;;;;;;22.78;49.54;99137.75;5071550;28;20025;-60
2023/07/18 01:53:12;;;;;;;11.98;7.13;;;;;;;22.65;49.79;99110.56;5073545;28;20029;-59
2023/07/18 01:55:38;;;;;;;11.25;6.97;;;;;;;22.84;49.74;99143.38;5075532;28;20042;-60
2023/07/18 01:58:04;;;;;;;13.82;6.65;;;;;;;22.87;49.60;99142.94;5075871;28;20032;-59
2023/07/18 02:00:30;;;;;;;12.00;6.90;;;;;;;22.83;49.91;99139.84;5074955;28;20359;-61
2023/07/18 02:02:57;;;;;;;12.15;7.38;;;;;;;22.84;50.53;99132.47;5075478;28;20414;-58
2023/07/18 02:05:28;;;;;;;7.57;6.75;;;;;;;22.97;50.32;99137.00;5075236;28;20056;-60
2023/07/18 02:07:54;;;;;;;8.95;6.57;;;;;;;22.90;50.26;99120.66;5075719;28;20067;-60
2023/07/18 02:10:20;;;;;;;12.63;7.68;;;;;;;23.00;49.82;99131.94;5075500;28;20049;-60
2023/07/18 02:12:47;;;;;;;9.13;6.70;;;;;;;23.03;50.46;99131.47;5075438;28;20028;-60
2023/07/18 02:15:13;;;;;;;12.63;7.03;;;;;;;23.04;51.00;99127.69;5076058;28;20082;-60
2023/07/18 02:17:40;;;;;;;13.38;7.20;;;;;;;23.04;50.78;99126.88;5075255;28;20028;-60
2023/07/18 02:20:09;;;;;;;9.15;7.13;;;;;;;23.04;51.16;99130.41;5075444;28;20036;-60
2023/07/18 02:22:35;;;;;;;11.07;6.80;;;;;;;23.03;51.51;99111.53;5075979;28;20032;-60
2023/07/18 02:25:04;;;;;;;12.13;6.97;;;;;;;23.07;51.05;99104.59;5075160;28;20356;-61
2023/07/18 02:27:31;;;;;;;13.70;7.20;;;;;;;23.17;50.09;99117.72;5075028;28;20075;-60
2023/07/18 02:29:57;;;;;;;10.32;7.35;;;;;;;23.27;50.76;99103.56;5075311;28;20120;-60
2023/07/18 02:32:22;;;;;;;12.77;6.72;;;;;;;23.46;50.76;99108.00;5075655;28;20108;-60
2023/07/18 02:34:48;;;;;;;9.23;6.57;;;;;;;23.59;49.21;99107.00;5074984;28;20024;-60
2023/07/18 02:37:14;;;;;;;8.45;6.80;;;;;;;23.75;50.04;99111.06;5073955;28;20028;-61
2023/07/18 02:39:40;;;;;;;8.35;7.18;;;;;;;23.94;49.59;99100.94;5075443;28;20060;-56
2023/07/18 02:42:06;;;;;;;11.18;7.00;;;;;;;24.13;49.38;99106.41;5075716;28;20028;-61
2023/07/18 02:44:32;;;;;;;9.02;6.95;;;;;;;24.31;48.12;99107.41;5074824;28;20040;-60
2023/07/18 02:46:57;;;;;;;10.98;7.00;;;;;;;24.51;48.03;99101.69;5074781;28;20029;-62
2023/07/18 02:49:23;;;;;;;10.48;6.85;;;;;;;24.61;47.35;99085.50;5075000;28;20569;-61
2023/07/18 02:51:48;;;;;;;9.43;6.78;;;;;;;24.57;47.66;99075.25;5075334;28;20029;-59
2023/07/18 02:54:14;;;;;;;14.43;7.50;;;;;;;24.58;47.05;99088.72;5074752;28;20025;-60
2023/07/18 02:56:39;;;;;;;13.38;7.18;;;;;;;24.56;47.00;99092.75;5074910;28;20020;-59
2023/07/18 02:59:06;;;;;;;14.10;7.10;;;;;;;24.43;46.80;99089.16;5075115;28;20047;-60
2023/07/18 03:01:31;;;;;;;15.75;7.40;;;;;;;24.37;47.19;99092.84;5075186;28;20452;-62
2023/07/18 03:03:57;;;;;;;11.18;7.40;;;;;;;24.35;47.37;99098.53;5074121;28;20032;-61
2023/07/18 03:06:24;;;;;;;10.35;7.72;;;;;;;24.35;47.57;99097.69;5074022;28;20033;-61
2023/07/18 03:08:50;;;;;;;13.63;7.25;;;;;;;24.35;47.97;99097.69;5074391;28;20052;-58
2023/07/18 03:11:17;;;;;;;10.20;7.38;;;;;;;24.41;47.37;99090.44;5074933;28;20047;-60
2023/07/18 03:13:43;;;;;;;11.40;6.85;;;;;;;24.48;46.90;99086.56;5074586;28;20035;-60
2023/07/18 03:16:08;;;;;;;12.40;7.22;;;;;;;24.58;46.80;99079.66;5074381;28;20175;-59
2023/07/18 03:18:34;;;;;;;16.33;7.05;;;;;;;24.82;46.32;99079.72;5074249;28;20036;-60
2023/07/18 03:21:00;;;;;;;12.07;7.07;;;;;;;25.08;45.52;99073.81;5074669;28;20025;-59
2023/07/18 03:23:26;;;;;;;12.68;7.03;;;;;;;25.32;45.14;99079.28;5074380;28;20085;-60
2023/07/18 03:25:51;;;;;;;10.52;7.10;;;;;;;25.60;44.32;99069.50;5073716;28;20082;-62
2023/07/18 03:28:18;;;;;;;11.60;7.00;;;;;;;26.13;43.17;99074.94;5074412;28;20024;-61
2023/07/18 03:30:43;;;;;;;11.57;7.60;;;;;;;26.61;42.92;99078.28;5074603;28;20037;-60
2023/07/18 03:33:09;;;;;;;13.70;7.40;;;;;;;27.07;41.66;99064.50;5073964;28;20047;-62
2023/07/18 03:35:35;;;;;;;11.13;7.50;;;;;;;27.54;40.96;99058.84;5074117;28;20123;-61
2023/07/18 03:38:01;;;;;;;13.38;8.30;;;;;;;28.18;39.43;99061.00;5073821;28;20107;-58
2023/07/18 03:40:26;;;;;;;12.02;7.53;;;;;;;28.89;37.89;99056.41;5073590;28;20025;-61
2023/07/18 03:42:52;;;;;;;16.88;7.90;;;;;;;29.43;36.99;99043.53;5073764;28;20032;-61
2023/07/18 03:45:17;;;;;;;12.30;7.65;;;;;;;30.05;35.88;99042.97;5072704;28;20040;-62
2023/07/18 03:47:43;;;;;;;10.18;7.28;;;;;;;30.60;34.84;99050.75;5073667;28;20430;-63
2023/07/18 03:50:11;;;;;;;11.15;7.07;;;;;;;31.30;33.63;99055.69;5074012;28;20043;-61
2023/07/18 03:52:37;;;;;;;12.15;6.70;;;;;;;31.80;32.65;99043.91;5073211;28;20452;-59
2023/07/18 03:55:04;;;;;;;10.88;6.43;;;;;;;32.24;32.33;99049.75;5073736;28;20031;-61
2023/07/18 03:57:34;;;;;;;12.13;6.15;;;;;;;32.79;31.68;99058.75;5073303;28;20364;-60
2023/07/18 03:59:59;;;;;;;11.30;6.38;;;;;;;33.11;30.88;99044.66;5073159;28;20033;-62
2023/07/18 04:02:26;;;;;;;7.45;5.70;;;;;;;33.22;30.71;99037.88;5073639;28;20349;-60
2023/07/18 04:04:52;;;;;;;8.70;5.65;;;;;;;33.57;30.21;99051.63;5073195;28;20052;-60
2023/07/18 04:07:19;;;;;;;9.20;7.10;;;;;;;33.96;29.74;99033.13;5073131;28;20040;-60
2023/07/18 04:09:45;;;;;;;7.43;6.00;;;;;;;34.48;28.53;99033.16;5072530;28;20131;-59
2023/07/18 04:12:13;;;;;;;9.60;6.88;;;;;;;35.20;27.95;99043.06;5073642;28;20549;-61
2023/07/18 04:14:42;;;;;;;8.15;6.13;;;;;;;35.80;27.04;99048.84;5072940;28;20028;-61
2023/07/18 04:17:07;;;;;;;10.20;6.05;;;;;;;36.21;26.68;99035.97;5072317;28;20111;-60
2023/07/18 04:19:33;;;;;;;8.98;6.43;;;;;;;36.46;26.50;99037.31;5073516;28;20124;-61
2023/07/18 04:21:58;;;;;;;6.00;5.50;;;;;;;36.10;26.80;99032.59;5072812;28;20447;-61
2023/07/18 04:24:24;;;;;;;7.65;5.97;;;;;;;35.62;27.28;99036.69;5072965;28;20025;-60
2023/07/18 04:26:50;;;;;;;6.72;6.10;;;;;;;34.87;28.66;99037.53;5073456;28;20033;-61
2023/07/18 04:29:16;;;;;;;8.10;6.05;;;;;;;34.02;29.61;99037.50;5073118;28;20097;-56
2023/07/18 04:31:42;;;;;;;12.82;6.30;;;;;;;33.66;30.47;99029.63;5072970;28;20060;-61
2023/07/18 04:34:07;;;;;;;8.60;6.13;;;;;;;34.05;29.40;99036.88;5072763;28;20075;-61
2023/07/18 04:36:33;;;;;;;11.05;6.38;;;;;;;34.97;28.21;99033.75;5073325;28;20056;-61
2023/07/18 04:38:58;;;;;;;12.55;5.95;;;;;;;35.35;27.88;99033.59;5072785;28;20039;-60
2023/07/18 04:41:24;;;;;;;8.57;5.72;;;;;;;34.96;28.40;99031.25;5072557;28;20051;-61
2023/07/18 04:43:49;;;;;;;9.23;6.45;;;;;;;35.04;28.26;99039.75;5072823;28;20032;-59
2023/07/18 04:46:15;;;;;;;7.80;5.78;;;;;;;35.26;27.90;99018.75;5073524;28;20116;-60
2023/07/18 04:48:40;;;;;;;6.75;5.85;;;;;;;35.16;27.83;99010.59;5072809;28;20093;-60
2023/07/18 04:51:06;;;;;;;6.38;5.03;;;;;;;36.35;26.27;99013.63;5072379;28;20098;-60
2023/07/18 04:53:32;;;;;;;10.05;6.10;;;;;;;37.89;24.68;99010.56;5072859;28;20024;-62
2023/07/18 04:56:00;;;;;;;9.63;5.93;;;;;;;38.89;23.24;99011.81;5073055;28;20449;-61
2023/07/18 04:58:26;;;;;;;8.38;5.75;;;;;;;40.08;21.79;99006.56;5072533;28;20036;-61
2023/07/18 05:00:56;;;;;;;6.25;5.65;;;;;;;41.25;20.76;99012.31;5072311;28;20024;-61
2023/07/18 05:03:26;;;;;;;6.55;5.88;;;;;;;42.30;19.60;99024.00;5072587;28;20067;-59
2023/07/18 05:05:52;;;;;;;9.98;5.55;;;;;;;42.62;19.15;99010.03;5072817;28;20098;-60
2023/07/18 05:08:18;;;;;;;10.48;5.80;;;;;;;41.97;19.76;99002.53;5072583;28;20319;-55
2023/07/18 05:10:44;;;;;;;8.88;4.88;;;;;;;41.71;19.81;99006.56;5072413;28;20123;-60
2023/07/18 05:13:10;;;;;;;9.98;5.68;;;;;;;42.00;19.49;99007.44;5072295;28;20044;-61
2023/07/18 05:15:36;;;;;;;6.55;5.10;;;;;;;42.50;18.88;99002.47;5072916;28;20055;-63
2023/07/18 05:18:02;;;;;;;6.78;4.68;;;;;;;42.71;18.69;98998.59;5071684;28;20036;-61
2023/07/18 05:20:28;;;;;;;6.28;4.80;;;;;;;41.61;19.92;98997.47;5071928;28;20036;-60
2023/07/18 05:22:53;;;;;;;7.07;4.88;;;;;;;40.08;21.62;98996.19;5072126;28;20186;-61
2023/07/18 05:25:19;;;;;;;8.38;5.13;;;;;;;38.87;23.07;98986.16;5072931;28;20033;-57
2023/07/18 05:27:45;;;;;;;10.95;5.55;;;;;;;37.96;24.16;98982.13;5073215;28;20032;-61
2023/07/18 05:30:20;;;;;;;7.28;5.38;;;;;;;37.71;25.06;98994.94;5076030;28;20028;-60
2023/07/18 05:32:46;;;;;;;8.13;4.85;;;;;;;37.02;25.47;98992.41;5076374;28;20090;-60
2023/07/18 05:35:15;;;;;;;6.85;5.25;;;;;;;36.47;26.56;98971.22;5075963;28;20036;-60
2023/07/18 05:37:42;;;;;;;7.32;5.53;;;;;;;37.48;25.11;98944.78;5075309;28;20117;-61
2023/07/18 05:40:11;;;;;;;7.38;5.53;;;;;;;38.63;23.65;98970.75;5075035;28;20036;-61
2023/07/18 05:42:37;;;;;;;8.90;5.47;;;;;;;38.70;23.46;98964.63;5075990;28;20455;-61
2023/07/18 05:45:05;;;;;;;8.52;5.45;;;;;;;37.82;24.46;98968.31;5076257;28;20028;-61
2023/07/18 05:47:31;;;;;;;6.35;5.10;;;;;;;36.51;26.04;98969.44;5075506;28;20033;-60
2023/07/18 05:49:57;;;;;;;8.75;5.35;;;;;;;35.19;28.17;98954.34;5075988;28;20028;-60
2023/07/18 05:52:23;;;;;;;9.90;5.88;;;;;;;34.16;29.82;98948.69;5075128;28;20449;-60
2023/07/18 05:54:49;;;;;;;9.18;5.20;;;;;;;33.62;30.88;98946.97;5075676;28;20114;-60
2023/07/18 05:57:14;;;;;;;11.70;5.97;;;;;;;33.85;30.48;98938.84;5076016;28;20443;-62
2023/07/18 05:59:40;;;;;;;10.93;5.80;;;;;;;36.36;27.31;98920.50;5074931;28;20048;-61
2023/07/18 06:02:05;;;;;;;13.60;5.93;;;;;;;39.56;23.24;98921.75;5075415;28;20351;-59
2023/07/18 06:04:31;;;;;;;9.80;6.38;;;;;;;41.43;20.46;98917.41;5075975;28;20032;-61
2023/07/18 06:06:56;;;;;;;9.07;5.60;;;;;;;42.96;18.96;98914.00;5074899;28;20031;-59
2023/07/18 06:09:22;;;;;;;8.32;5.70;;;;;;;44.73;17.44;98920.50;5075418;28;20498;-59
2023/07/18 06:11:48;;;;;;;7.47;5.70;;;;;;;46.44;15.76;98929.28;5075733;28;20372;-62
2023/07/18 06:14:13;;;;;;;10.07;5.25;;;;;;;47.47;14.73;98919.56;5075991;28;20059;-60
2023/07/18 06:16:39;;;;;;;5.43;4.88;;;;;;;48.04;14.12;98919.03;5075311;28;20086;-61
2023/07/18 06:19:04;;;;;;;5.70;4.78;;;;;;;49.05;13.17;98911.81;5074956;28;20337;-61
2023/07/18 06:21:30;;;;;;;6.55;4.93;;;;;;;49.91;13.09;98909.94;5075719;28;20035;-59
2023/07/18 06:23:56;;;;;;;7.57;4.93;;;;;;;50.44;12.22;98902.28;5075568;28;20030;-62
2023/07/18 06:26:22;;;;;;;6.20;4.75;;;;;;;50.16;12.06;98906.13;5075360;28;20115;-60
2023/07/18 06:28:49;;;;;;;7.85;4.70;;;;;;;49.81;12.50;98909.56;5075127;28;20047;-60
2023/07/18 06:31:15;;;;;;;8.13;5.20;;;;;;;49.91;12.49;98899.38;5075253;28;20036;-61
2023/07/18 06:33:40;;;;;;;8.40;5.85;;;;;;;50.51;12.16;98909.97;5075390;28;20340;-61
2023/07/18 06:36:06;;;;;;;5.47;4.97;;;;;;;51.04;11.45;98916.44;5074770;28;20052;-61
2023/07/18 06:38:32;;;;;;;8.57;5.40;;;;;;;51.28;11.32;98902.34;5074526;28;20075;-58
2023/07/18 06:40:58;;;;;;;8.30;5.57;;;;;;;50.94;11.54;98875.44;5074375;28;20441;-60
2023/07/18 06:43:24;;;;;;;7.90;4.95;;;;;;;49.69;12.20;98898.66;5075552;28;20028;-59
2023/07/18 06:45:50;;;;;;;6.32;5.20;;;;;;;49.81;12.46;98900.22;5074921;28;20448;-62
2023/07/18 06:48:17;;;;;;;6.03;4.30;;;;;;;51.07;11.60;98906.22;5074684;28;20037;-60
2023/07/18 06:50:46;;;;;;;11.25;5.47;;;;;;;51.13;11.42;98904.56;5075252;28;20025;-60
2023/07/18 06:53:11;;;;;;;8.75;5.28;;;;;;;49.72;12.40;98897.00;5074407;28;20044;-62
2023/07/18 06:55:37;;;;;;;10.52;5.60;;;;;;;48.49;13.69;98886.69;5074502;28;20025;-60
2023/07/18 06:58:03;;;;;;;10.13;5.13;;;;;;;49.35;12.55;98888.63;5074612;28;20040;-61
2023/07/18 07:00:29;;;;;;;9.77;5.50;;;;;;;50.68;11.62;98886.25;5075097;28;20033;-60
2023/07/18 07:02:54;;;;;;;7.97;5.03;;;;;;;52.02;10.52;98878.19;5075271;28;20032;-58
2023/07/18 07:05:20;;;;;;;6.78;5.10;;;;;;;52.17;10.32;98875.13;5074617;28;20088;-61
2023/07/18 07:07:47;;;;;;;8.55;5.18;;;;;;;52.46;10.59;98868.97;5073346;28;20437;-61
2023/07/18 07:10:12;;;;;;;7.80;5.50;;;;;;;53.08;9.89;98865.84;5057534;28;20048;-62
2023/07/18 07:12:38;;;;;;;5.60;4.97;;;;;;;53.61;9.43;98857.38;5074762;28;20503;-61
2023/07/18 07:15:04;;;;;;;6.22;5.60;;;;;;;54.02;9.04;98854.44;5074103;28;20111;-62
2023/07/18 07:17:33;;;;;;;5.60;5.07;;;;;;;55.13;8.66;98858.56;5074032;28;20039;-63
2023/07/18 07:19:58;;;;;;;7.80;5.97;;;;;;;55.81;8.28;98857.00;5074808;28;20044;-61
2023/07/18 07:22:24;;;;;;;7.72;6.10;;;;;;;56.15;7.82;98847.69;5074339;28;20526;-62
2023/07/18 07:24:49;;;;;;;6.13;5.63;;;;;;;56.49;7.60;98842.47;5074114;28;20029;-62
2023/07/18 07:27:15;;;;;;;10.20;7.05;;;;;;;56.75;7.72;98842.41;5073647;28;20464;-61
2023/07/18 07:29:40;;;;;;;7.13;6.45;;;;;;;56.76;7.58;98839.03;5073880;28;20042;-61
2023/07/18 07:32:06;;;;;;;7.17;6.57;;;;;;;56.73;7.38;98850.69;5073635;28;20182;-62
2023/07/18 07:34:32;;;;;;;7.90;7.10;;;;;;;56.76;7.33;98844.00;5073000;28;20681;-60
2023/07/18 07:36:57;;;;;;;10.60;7.95;;;;;;;57.02;7.67;98829.53;5073510;28;20024;-60
2023/07/18 07:39:23;;;;;;;11.05;7.45;;;;;;;57.30;6.95;98829.72;5074449;28;20512;-60
2023/07/18 07:41:48;;;;;;;12.20;8.32;;;;;;;57.27;7.50;98824.91;5073532;28;20025;-62
2023/07/18 07:44:14;;;;;;;8.20;7.57;;;;;;;57.07;7.57;98828.91;5073628;28;20113;-62
2023/07/18 07:46:40;;;;;;;11.98;8.27;;;;;;;56.88;7.54;98808.63;5072745;28;20108;-61
2023/07/18 07:49:05;;;;;;;7.72;6.80;;;;;;;57.21;7.20;98811.13;5073332;28;20024;-60
2023/07/18 07:51:31;;;;;;;11.88;8.75;;;;;;;57.05;7.09;98811.34;5072859;28;20103;-61
2023/07/18 07:53:58;;;;;;;9.00;8.07;;;;;;;56.98;7.42;98798.03;5074103;28;20032;-61
2023/07/18 07:56:24;;;;;;;7.60;6.97;;;;;;;57.00;7.32;98788.94;5073627;28;20106;-60
2023/07/18 07:58:50;;;;;;;9.13;8.23;;;;;;;57.24;7.17;98794.19;5073123;28;20063;-60
2023/07/18 08:01:16;;;;;;;10.10;8.95;;;;;;;57.34;6.97;98795.84;5073835;28;20103;-62
2023/07/18 08:03:41;;;;;;;10.32;8.27;;;;;;;57.27;7.00;98796.94;5073268;28;20083;-62
2023/07/18 08:06:07;;;;;;;8.93;7.78;;;;;;;56.69;7.57;98789.66;5073106;28;20028;-60
2023/07/18 08:08:32;;;;;;;8.98;8.15;;;;;;;55.63;7.91;98789.47;5073658;28;20051;-61
2023/07/18 08:10:58;;;;;;;8.60;7.80;;;;;;;54.45;8.29;98780.97;5073629;28;20051;-58
2023/07/18 08:13:24;;;;;;;10.15;7.18;;;;;;;53.29;9.18;98780.84;5073045;28;20105;-61
2023/07/18 08:15:50;;;;;;;8.20;6.55;;;;;;;52.14;10.10;98767.53;5072053;28;20350;-61
2023/07/18 08:18:16;;;;;;;10.23;6.38;;;;;;;51.32;10.86;98760.59;5073629;28;20043;-61
2023/07/18 08:20:41;;;;;;;8.05;6.05;;;;;;;50.78;10.97;98750.63;5071971;28;20021;-61
2023/07/18 08:23:07;;;;;;;7.20;6.10;;;;;;;49.99;11.74;98758.66;5072745;28;20118;-61
2023/07/18 08:25:33;;;;;;;6.57;5.57;;;;;;;48.40;13.16;98740.28;5073262;28;20028;-60
2023/07/18 08:27:58;;;;;;;5.85;5.25;;;;;;;46.25;14.71;98734.25;5073699;28;20031;-61
2023/07/18 08:30:24;;;;;;;5.70;5.22;;;;;;;44.06;16.87;98738.38;5072847;28;20040;-60
2023/07/18 08:32:49;;;;;;;10.35;6.20;;;;;;;42.43;18.48;98744.25;5072552;28;20094;-60
2023/07/18 08:35:15;;;;;;;7.00;5.70;;;;;;;40.89;20.00;98745.31;5072856;28;20040;-60
2023/07/18 08:37:40;;;;;;;6.38;5.72;;;;;;;39.68;21.56;98733.34;5073286;28;20047;-61
2023/07/18 08:40:09;;;;;;;8.77;5.80;;;;;;;38.78;22.78;98731.63;5072690;28;20020;-61
2023/07/18 08:42:36;;;;;;;6.97;5.80;;;;;;;38.34;23.76;98732.69;5072547;28;20123;-62
2023/07/18 08:45:03;;;;;;;12.00;6.55;;;;;;;38.04;23.92;98724.28;5072859;28;20433;-63
2023/07/18 08:47:31;;;;;;;11.00;6.78;;;;;;;37.86;23.95;98690.00;5073097;28;20375;-61
2023/07/18 08:49:58;;;;;;;12.13;6.70;;;;;;;37.99;24.13;98726.44;5072741;28;20024;-61
2023/07/18 08:52:24;;;;;;;9.15;6.20;;;;;;;37.96;24.32;98710.31;5072249;28;20039;-61
2023/07/18 08:54:50;;;;;;;9.13;6.32;;;;;;;37.70;24.84;98720.41;5072850;28;20036;-61
2023/07/18 08:57:16;;;;;;;10.77;6.95;;;;;;;37.46;25.21;98716.19;5072837;28;20028;-62
2023/07/18 08:59:43;;;;;;;10.68;6.88;;;;;;;37.32;25.33;98719.16;5072446;28;20036;-61
2023/07/18 09:02:09;;;;;;;11.63;6.95;;;;;;;37.06;25.78;98708.03;5071557;28;20453;-60
2023/07/18 09:04:34;;;;;;;11.77;7.47;;;;;;;36.84;26.00;98700.59;5072261;28;20070;-61
2023/07/18 09:07:02;;;;;;;10.15;6.93;;;;;;;36.63;26.21;98690.09;5072931;28;20365;-60
2023/07/18 09:09:28;;;;;;;12.38;7.25;;;;;;;36.68;26.51;98698.31;5072112;28;20048;-60
2023/07/18 09:11:59;;;;;;;7.90;6.93;;;;;;;36.68;26.30;98689.97;5072036;28;20136;-60
2023/07/18 09:14:32;;;;;;;8.55;6.43;;;;;;;36.35;27.12;98691.19;5072565;28;20048;-61
2023/07/18 09:17:03;;;;;;;11.18;7.50;;;;;;;36.12;27.38;98695.22;5072660;28;20452;-61
2023/07/18 09:19:48;;;;;;;8.65;7.35;;;;;;;36.05;26.92;98673.38;5072394;28;20024;-60
2023/07/18 09:22:17;;;;;;;13.63;7.20;;;;;;;35.87;27.52;98680.84;5071982;28;20044;-61
2023/07/18 09:24:43;;;;;;;13.40;7.47;;;;;;;35.74;27.49;98679.81;5071125;28;20028;-62
2023/07/18 09:27:15;;;;;;;9.10;7.70;;;;;;;35.57;27.27;98691.63;5072123;28;20086;-61
2023/07/18 09:29:45;;;;;;;8.07;7.00;;;;;;;35.27;27.76;98685.72;5072344;28;20044;-60
2023/07/18 09:32:31;;;;;;;12.57;7.13;;;;;;;35.40;27.78;98678.44;5071939;28;20028;-61
2023/07/18 09:35:00;;;;;;;9.75;6.47;;;;;;;35.20;28.16;98683.38;5072271;28;20041;-61
2023/07/18 09:37:27;;;;;;;10.57;7.60;;;;;;;35.15;28.59;98678.78;5071710;28;20372;-61
2023/07/18 09:39:54;;;;;;;11.55;7.55;;;;;;;35.04;28.87;98667.06;5071799;28;20025;-61
2023/07/18 09:42:24;;;;;;;10.25;8.15;;;;;;;35.20;28.77;98669.44;5072121;28;20036;-62
2023/07/18 09:44:50;;;;;;;12.15;7.70;;;;;;;35.13;29.00;98649.63;5071718;28;20471;-60
2023/07/18 09:47:17;;;;;;;8.45;7.43;;;;;;;35.02;29.02;98661.00;5070724;28;20081;-61
2023/07/18 09:49:43;;;;;;;11.45;7.70;;;;;;;34.83;29.35;98658.34;5072161;28;20033;-62
2023/07/18 09:52:10;;;;;;;12.40;8.10;;;;;;;34.55;30.11;98650.13;5071866;28;20441;-60
2023/07/18 09:54:37;;;;;;;9.68;7.63;;;;;;;34.49;29.98;98645.81;5071734;28;20032;-60
2023/07/18 09:57:07;;;;;;;12.07;7.88;;;;;;;34.53;30.12;98635.72;5071666;28;20449;-62
2023/07/18 09:59:37;;;;;;;9.48;7.40;;;;;;;34.71;29.55;98642.25;5071710;28;20032;-61
2023/07/18 10:02:06;;;;;;;12.27;7.72;;;;;;;34.73;29.98;98640.00;5071913;28;20040;-62
2023/07/18 10:04:32;;;;;;;8.82;7.90;;;;;;;34.74;29.80;98638.84;5072570;28;20020;-60
2023/07/18 10:06:58;;;;;;;9.55;7.70;;;;;;;34.70;29.76;98631.44;5071732;28;20051;-61
2023/07/18 10:09:27;;;;;;;8.57;7.65;;;;;;;34.63;29.59;98629.09;5071547;28;20104;-61
2023/07/18 10:11:59;;;;;;;8.88;7.32;;;;;;;34.62;29.60;98627.47;5072142;28;20087;-61
2023/07/18 10:14:29;;;;;;;8.57;7.60;;;;;;;34.17;30.00;98587.31;5074104;28;20032;-60
2023/07/18 10:17:04;;;;;;;12.55;7.50;;;;;;;34.24;29.84;98611.88;5074948;28;20037;-62
2023/07/18 10:19:45;;;;;;;11.80;6.82;;;;;;;34.45;29.23;98595.56;5075087;28;20075;-62
2023/07/18 10:22:11;;;;;;;11.20;8.05;;;;;;;34.31;29.80;98578.13;5075693;28;20063;-61
2023/07/18 10:24:36;;;;;;;9.38;6.85;;;;;;;34.25;29.54;98573.84;5074577;28;20116;-59
2023/07/18 10:27:09;;;;;;;7.88;7.18;;;;;;;34.34;29.00;98591.38;5075733;28;20116;-62
2023/07/18 10:29:38;;;;;;;9.15;7.07;;;;;;;34.27;29.14;98589.03;5074531;28;20029;-62
2023/07/18 10:32:06;;;;;;;8.95;6.97;;;;;;;34.24;29.70;98581.34;5075853;28;20032;-61
2023/07/18 10:34:39;;;;;;;11.07;7.72;;;;;;;34.26;29.77;98572.69;5075606;28;20460;-61
2023/07/18 10:37:07;;;;;;;7.97;7.05;;;;;;;34.10;29.94;98572.19;5074844;28;20024;-61
2023/07/18 10:39:43;;;;;;;8.27;7.00;;;;;;;34.10;30.10;98561.09;5075389;28;20126;-61
2023/07/18 10:42:37;;;;;;;8.13;7.43;;;;;;;34.10;29.94;98556.38;5075518;28;20115;-60
2023/07/18 10:45:07;;;;;;;12.38;7.28;;;;;;;34.04;30.35;98543.75;5074322;28;20036;-62
2023/07/18 10:47:37;;;;;;;8.52;7.55;;;;;;;33.94;30.55;98536.44;5073525;28;20407;-62
2023/07/18 10:50:04;;;;;;;11.15;7.50;;;;;;;33.89;30.14;98539.31;5075374;28;20043;-61
2023/07/18 10:52:32;;;;;;;7.90;6.97;;;;;;;33.80;30.17;98533.69;5075156;28;20108;-62
2023/07/18 10:55:00;;;;;;;8.27;7.07;;;;;;;33.59;30.97;98523.00;5074899;28;20108;-62
2023/07/18 10:57:30;;;;;;;8.80;6.90;;;;;;;33.35;31.85;98529.56;5074041;28;20360;-61
2023/07/18 10:59:58;;;;;;;9.10;7.53;;;;;;;32.77;32.71;98515.03;5074188;28;20025;-62
2023/07/18 11:02:25;;;;;;;11.40;7.68;;;;;;;32.41;33.16;98518.41;5074769;28;20028;-61
2023/07/18 11:04:51;;;;;;;11.43;7.93;;;;;;;32.05;33.38;98507.84;5074384;28;20028;-62
2023/07/18 11:07:17;;;;;;;10.45;7.90;;;;;;;31.71;33.91;98504.16;5074049;28;20044;-61
2023/07/18 11:09:43;;;;;;;10.40;7.57;;;;;;;31.44;35.17;98494.50;5074398;28;20131;-59
2023/07/18 11:12:18;;;;;;;13.30;7.63;;;;;;;31.31;35.03;98493.25;5074833;28;20091;-57
2023/07/18 11:14:44;;;;;;;;;;;;;;;31.48;33.71;98497.50;5074460;28;20455;-62
2023/07/18 11:17:12;;;;;;;8.05;6.28;;;;;;;30.76;34.57;98486.06;5074339;28;20014;-61
2023/07/18 11:19:38;;;;;;;10.52;7.15;;;;;;;30.46;35.28;98503.69;5074240;28;20033;-61
2023/07/18 11:22:05;;;;;;;13.00;8.10;;;;;;;30.15;37.81;98531.53;5074164;28;20059;-60
2023/07/18 11:24:31;;;;;;;17.40;9.10;;;;;;;29.52;43.32;98536.50;5074012;28;20107;-61
2023/07/18 11:27:12;;;;;;;18.23;10.75;;;;;;;28.99;46.94;98645.13;5073156;28;20060;-61